Temp: 12.6°C   Baro: 1031.3mb
  Wind: 10.1mph   Dir: NNE (19°)
  Rain: 0.0mm (0.0mm/hr)
  Solar: 0W/m2  Hum: 82%
 
Bath Spa Weather Historical Data
Daily Summary for October 13, 2018 Units:  Metric    English   Both
Next Day »
Daily Weekly Monthly Yearly Custom
  High: Low: Average:
Temperature: 21.9 °C 14.7 °C 18.6 °C
Dew Point: 17.6 °C 12.7 °C 16.4 °C
Humidity: 94% 75% 87%
Wind Speed: 35.2km/h 1.4km/h 13.2km/h
Wind Gust: 43.4km/h - -
Wind direction- - SSW
Pressure: 1008.0 hPa 1003.9 hPa -
Precipitation: 3.6 mm    
Historical Graphs
 
 
Tabular Data for October 13, 2018
Time Temperature Dew Point Pressure Wind direction Wind Speed Wind Gust Humidity Rainfall Rate (Hourly) solar
00:02 17.8 °C 16.7 °C 1008.0 hPa SW 14.3 km/h 43.4 km/h 93% 0.0 mm 0.00 W/m2
00:07 17.8 °C 16.7 °C 1007.7 hPa SSE 24.1 km/h 33.8 km/h 93% 0.0 mm 0.00 W/m2
00:12 17.9 °C 16.8 °C 1008.0 hPa SSW 27.4 km/h 33.8 km/h 93% 0.0 mm 0.00 W/m2
00:17 18.0 °C 16.7 °C 1008.0 hPa SW 19.5 km/h 30.6 km/h 92% 0.0 mm 0.00 W/m2
00:22 18.0 °C 16.7 °C 1007.7 hPa SSW 9.7 km/h 20.9 km/h 92% 0.0 mm 0.00 W/m2
00:27 18.0 °C 16.7 °C 1007.7 hPa South 11.1 km/h 35.4 km/h 92% 0.0 mm 0.00 W/m2
00:32 18.1 °C 16.8 °C 1007.7 hPa SSW 14.3 km/h 29.0 km/h 92% 0.0 mm 0.00 W/m2
00:37 18.1 °C 16.8 °C 1008.0 hPa SSW 19.5 km/h 33.8 km/h 92% 0.0 mm 0.00 W/m2
00:42 18.1 °C 16.8 °C 1007.7 hPa SW 9.7 km/h 25.7 km/h 92% 0.0 mm 0.00 W/m2
00:47 18.2 °C 16.9 °C 1007.7 hPa South 11.1 km/h 25.7 km/h 92% 0.0 mm 0.00 W/m2
00:52 18.2 °C 16.9 °C 1007.7 hPa South 7.9 km/h 25.7 km/h 92% 0.0 mm 0.00 W/m2
00:57 18.1 °C 16.8 °C 1008.0 hPa SSE 22.7 km/h 30.6 km/h 92% 0.0 mm 0.00 W/m2
01:02 18.0 °C 16.7 °C 1008.0 hPa SSW 14.3 km/h 20.9 km/h 92% 0.0 mm 0.00 W/m2
01:07 18.0 °C 16.7 °C 1007.7 hPa South 7.9 km/h 19.3 km/h 92% 0.0 mm 0.00 W/m2
01:12 17.9 °C 16.8 °C 1007.7 hPa South 4.7 km/h 29.0 km/h 93% 0.0 mm 0.00 W/m2
01:17 17.8 °C 16.7 °C 1007.7 hPa SSW 19.5 km/h 29.0 km/h 93% 0.0 mm 0.00 W/m2
01:22 17.8 °C 16.7 °C 1007.7 hPa South 16.3 km/h 20.9 km/h 93% 0.0 mm 0.00 W/m2
01:27 17.8 °C 16.7 °C 1007.7 hPa SSW 17.7 km/h 19.3 km/h 93% 0.0 mm 0.00 W/m2
01:32 17.9 °C 16.8 °C 1008.0 hPa South 9.7 km/h 25.7 km/h 93% 0.0 mm 0.00 W/m2
01:37 17.8 °C 16.7 °C 1007.7 hPa SSW 7.9 km/h 11.3 km/h 93% 0.0 mm 0.00 W/m2
01:42 17.8 °C 16.7 °C 1008.0 hPa SSE 11.1 km/h 20.9 km/h 93% 0.0 mm 0.00 W/m2
01:47 17.8 °C 16.7 °C 1008.0 hPa SW 14.3 km/h 32.2 km/h 93% 0.0 mm 0.00 W/m2
01:52 17.8 °C 16.7 °C 1008.0 hPa SSW 22.7 km/h 25.7 km/h 93% 0.0 mm 0.00 W/m2
01:57 17.8 °C 16.7 °C 1008.0 hPa SSW 13.0 km/h 16.1 km/h 93% 0.0 mm 0.00 W/m2
02:02 17.8 °C 16.7 °C 1008.0 hPa SSW 11.1 km/h 29.0 km/h 93% 0.0 mm 0.00 W/m2
02:07 17.8 °C 16.7 °C 1008.0 hPa SW 28.8 km/h 32.2 km/h 93% 0.0 mm 0.00 W/m2
02:12 17.8 °C 16.7 °C 1008.0 hPa South 9.7 km/h 24.1 km/h 93% 0.0 mm 0.00 W/m2
02:17 17.8 °C 16.7 °C 1008.0 hPa SW 11.1 km/h 20.9 km/h 93% 0.0 mm 0.00 W/m2
02:22 17.8 °C 16.7 °C 1008.0 hPa SSE 17.7 km/h 29.0 km/h 93% 0.0 mm 0.00 W/m2
02:27 17.8 °C 16.7 °C 1008.0 hPa SSW 16.3 km/h 20.9 km/h 93% 0.0 mm 0.00 W/m2
02:32 17.8 °C 16.7 °C 1007.7 hPa SSW 6.4 km/h 24.1 km/h 93% 0.0 mm 0.00 W/m2
02:37 17.8 °C 16.7 °C 1007.7 hPa SW 14.3 km/h 20.9 km/h 93% 0.0 mm 0.00 W/m2
02:42 17.9 °C 16.8 °C 1007.7 hPa SW 27.4 km/h 38.6 km/h 93% 0.0 mm 0.00 W/m2
02:47 17.9 °C 16.8 °C 1007.7 hPa SW 6.4 km/h 24.1 km/h 93% 0.0 mm 0.00 W/m2
02:52 17.9 °C 16.8 °C 1007.3 hPa WSW 22.7 km/h 32.2 km/h 93% 0.0 mm 0.00 W/m2
02:57 17.9 °C 16.8 °C 1007.3 hPa SSW 6.4 km/h 20.9 km/h 93% 0.0 mm 0.00 W/m2
03:02 18.0 °C 16.9 °C 1007.0 hPa SSW 11.1 km/h 30.6 km/h 93% 0.0 mm 0.00 W/m2
03:07 18.0 °C 16.9 °C 1007.3 hPa SW 25.9 km/h 25.7 km/h 93% 0.0 mm 0.00 W/m2
03:12 18.2 °C 17.0 °C 1007.3 hPa WSW 11.1 km/h 30.6 km/h 93% 0.0 mm 0.00 W/m2
03:17 18.1 °C 16.9 °C 1007.3 hPa SSW 19.5 km/h 19.3 km/h 93% 0.0 mm 0.00 W/m2
03:22 18.1 °C 16.9 °C 1007.0 hPa SSW 11.1 km/h 22.5 km/h 93% 0.3 mm 0.00 W/m2
03:27 18.0 °C 16.9 °C 1007.0 hPa WSW 19.5 km/h 22.5 km/h 93% 0.3 mm 0.00 W/m2
03:32 17.9 °C 16.8 °C 1007.3 hPa SSW 11.1 km/h 27.4 km/h 93% 0.5 mm 0.00 W/m2
03:37 18.0 °C 16.9 °C 1007.3 hPa SW 6.4 km/h 24.1 km/h 93% 0.5 mm 0.00 W/m2
03:42 18.0 °C 16.9 °C 1007.0 hPa SSW 6.4 km/h 30.6 km/h 93% 0.8 mm 0.00 W/m2
03:47 17.9 °C 16.8 °C 1007.0 hPa SSE 7.9 km/h 20.9 km/h 93% 0.8 mm 0.00 W/m2
03:52 17.9 °C 16.8 °C 1007.3 hPa SW 11.1 km/h 35.4 km/h 93% 0.8 mm 0.00 W/m2
03:57 17.9 °C 16.8 °C 1007.0 hPa South 20.9 km/h 24.1 km/h 93% 0.8 mm 0.00 W/m2
04:02 18.0 °C 16.9 °C 1007.0 hPa SSW 11.1 km/h 22.5 km/h 93% 0.8 mm 0.00 W/m2
04:07 17.9 °C 16.8 °C 1007.3 hPa SSW 9.7 km/h 24.1 km/h 93% 0.8 mm 0.00 W/m2
04:12 17.9 °C 16.8 °C 1007.3 hPa SSW 14.3 km/h 27.4 km/h 93% 0.8 mm 0.00 W/m2
04:17 17.9 °C 16.8 °C 1007.0 hPa SSW 11.1 km/h 29.0 km/h 93% 0.8 mm 0.00 W/m2
04:22 17.9 °C 16.8 °C 1007.0 hPa SW 13.0 km/h 22.5 km/h 93% 0.5 mm 0.00 W/m2
04:27 18.0 °C 16.9 °C 1007.0 hPa SW 9.7 km/h 27.4 km/h 93% 0.5 mm 0.00 W/m2
04:32 18.2 °C 16.9 °C 1007.0 hPa SSW 6.4 km/h 24.1 km/h 92% 0.3 mm 0.00 W/m2
04:37 18.2 °C 16.9 °C 1007.0 hPa SSW 9.7 km/h 25.7 km/h 92% 0.3 mm 0.00 W/m2
04:42 18.2 °C 16.9 °C 1007.0 hPa SW 20.9 km/h 30.6 km/h 92% 0.0 mm 0.00 W/m2
04:47 18.3 °C 17.0 °C 1007.0 hPa SW 9.7 km/h 17.7 km/h 92% 0.0 mm 0.00 W/m2
04:52 18.3 °C 16.8 °C 1007.0 hPa South 11.1 km/h 25.7 km/h 91% 0.0 mm 0.00 W/m2
04:57 18.3 °C 16.8 °C 1006.7 hPa SSW 11.1 km/h 29.0 km/h 91% 0.0 mm 0.00 W/m2
05:02 18.4 °C 16.9 °C 1006.7 hPa South 20.9 km/h 25.7 km/h 91% 0.0 mm 0.00 W/m2
05:07 18.3 °C 16.8 °C 1006.7 hPa South 16.3 km/h 25.7 km/h 91% 0.0 mm 0.00 W/m2
05:12 18.2 °C 16.9 °C 1006.7 hPa SSW 4.7 km/h 30.6 km/h 92% 0.0 mm 0.00 W/m2
05:17 18.0 °C 16.7 °C 1006.7 hPa South 16.3 km/h 22.5 km/h 92% 0.0 mm 0.00 W/m2
05:22 17.9 °C 16.6 °C 1006.7 hPa South 16.3 km/h 24.1 km/h 92% 0.0 mm 0.00 W/m2
05:27 17.8 °C 16.7 °C 1006.7 hPa South 7.9 km/h 37.0 km/h 93% 0.0 mm 0.00 W/m2
05:32 17.7 °C 16.6 °C 1006.7 hPa South 4.7 km/h 16.1 km/h 93% 0.0 mm 0.00 W/m2
05:37 17.7 °C 16.7 °C 1006.7 hPa South 11.1 km/h 32.2 km/h 94% 0.0 mm 0.00 W/m2
05:42 17.7 °C 16.6 °C 1006.7 hPa SSW 11.1 km/h 29.0 km/h 93% 0.0 mm 0.00 W/m2
05:47 17.8 °C 16.7 °C 1006.7 hPa SSW 4.7 km/h 24.1 km/h 93% 0.0 mm 0.00 W/m2
05:52 17.8 °C 16.7 °C 1006.7 hPa SSE 11.1 km/h 25.7 km/h 93% 0.0 mm 0.00 W/m2
05:57 17.9 °C 16.8 °C 1006.3 hPa SSW 17.7 km/h 25.7 km/h 93% 0.0 mm 0.00 W/m2
06:02 18.0 °C 16.9 °C 1006.3 hPa South 17.7 km/h 22.5 km/h 93% 0.3 mm 0.00 W/m2
06:07 18.1 °C 16.9 °C 1006.3 hPa South 1.4 km/h 17.7 km/h 93% 0.3 mm 0.00 W/m2
06:12 18.2 °C 17.0 °C 1006.3 hPa WSW 9.7 km/h 20.9 km/h 93% 0.3 mm 0.00 W/m2
06:17 18.2 °C 17.0 °C 1006.3 hPa SSW 22.7 km/h 33.8 km/h 93% 0.3 mm 0.00 W/m2
06:22 18.2 °C 17.0 °C 1006.3 hPa SW 17.7 km/h 27.4 km/h 93% 0.3 mm 0.00 W/m2
06:27 18.3 °C 17.1 °C 1006.7 hPa WSW 16.3 km/h 37.0 km/h 93% 0.3 mm 0.00 W/m2
06:32 18.3 °C 17.1 °C 1006.7 hPa SSW 9.7 km/h 38.6 km/h 93% 0.3 mm 0.00 W/m2
06:37 18.1 °C 16.9 °C 1006.3 hPa South 14.3 km/h 20.9 km/h 93% 0.3 mm 0.00 W/m2
06:42 18.1 °C 16.9 °C 1006.3 hPa SSW 14.3 km/h 22.5 km/h 93% 0.3 mm 0.00 W/m2
06:47 18.0 °C 16.9 °C 1006.3 hPa South 16.3 km/h 24.1 km/h 93% 0.5 mm 0.00 W/m2
06:53 18.1 °C 16.9 °C 1006.3 hPa SW 19.5 km/h 24.1 km/h 93% 0.5 mm 0.00 W/m2
06:58 18.1 °C 16.9 °C 1006.3 hPa SSW 25.9 km/h 30.6 km/h 93% 0.3 mm 0.00 W/m2
07:03 18.1 °C 16.9 °C 1006.7 hPa SSW 9.7 km/h 22.5 km/h 93% 0.3 mm 0.00 W/m2
07:08 18.0 °C 16.9 °C 1006.3 hPa South 9.7 km/h 14.5 km/h 93% 0.3 mm 0.00 W/m2
07:13 17.9 °C 16.8 °C 1006.3 hPa South 11.1 km/h 27.4 km/h 93% 0.5 mm 0.00 W/m2
07:18 17.9 °C 16.8 °C 1006.7 hPa SSW 30.6 km/h 38.6 km/h 93% 0.5 mm 0.00 W/m2
07:23 17.9 °C 16.8 °C 1006.3 hPa South 13.0 km/h 29.0 km/h 93% 0.5 mm 0.00 W/m2
07:28 17.9 °C 16.6 °C 1006.3 hPa SSW 6.4 km/h 32.2 km/h 92% 0.5 mm 0.00 W/m2
07:33 17.9 °C 16.6 °C 1006.3 hPa SSW 17.7 km/h 20.9 km/h 92% 0.5 mm 0.00 W/m2
07:38 17.9 °C 16.4 °C 1006.7 hPa SSW 14.3 km/h 30.6 km/h 91% 0.5 mm 0.00 W/m2
07:43 17.9 °C 16.4 °C 1006.7 hPa SSW 25.9 km/h 30.6 km/h 91% 0.5 mm 0.00 W/m2
07:48 18.0 °C 16.5 °C 1006.7 hPa SSE 20.9 km/h 37.0 km/h 91% 0.3 mm 0.00 W/m2
07:53 18.3 °C 16.6 °C 1006.7 hPa WSW 14.3 km/h 40.2 km/h 90% 0.3 mm 5.00 W/m2
07:58 18.4 °C 16.7 °C 1006.7 hPa SSE 6.4 km/h 30.6 km/h 90% 0.3 mm 0.00 W/m2
08:03 18.4 °C 16.7 °C 1006.7 hPa SSE 9.7 km/h 17.7 km/h 90% 0.3 mm 0.00 W/m2
08:08 18.5 °C 16.8 °C 1006.7 hPa SSE 11.1 km/h 19.3 km/h 90% 0.3 mm 0.00 W/m2
08:13 18.5 °C 16.8 °C 1006.7 hPa South 17.7 km/h 24.1 km/h 90% 0.0 mm 5.00 W/m2
08:18 18.4 °C 16.9 °C 1006.7 hPa South 14.3 km/h 30.6 km/h 91% 0.5 mm 9.00 W/m2
08:23 18.2 °C 16.9 °C 1006.7 hPa SSW 24.1 km/h 27.4 km/h 92% 1.0 mm 7.00 W/m2
08:28 18.3 °C 17.0 °C 1006.7 hPa SSW 3.2 km/h 19.3 km/h 92% 1.0 mm 7.00 W/m2
08:33 18.3 °C 17.0 °C 1006.7 hPa South 14.3 km/h 30.6 km/h 92% 1.0 mm 11.00 W/m2
08:38 18.4 °C 17.1 °C 1006.7 hPa SSW 13.0 km/h 22.5 km/h 92% 1.0 mm 12.00 W/m2
08:43 18.7 °C 17.2 °C 1007.0 hPa SSW 4.7 km/h 22.5 km/h 91% 1.0 mm 11.00 W/m2
08:48 18.7 °C 17.2 °C 1007.0 hPa SW 25.9 km/h 25.7 km/h 91% 1.0 mm 18.00 W/m2
08:53 18.6 °C 17.1 °C 1007.0 hPa SSW 11.1 km/h 27.4 km/h 91% 1.3 mm 16.00 W/m2
08:58 18.5 °C 17.0 °C 1007.3 hPa SW 7.9 km/h 19.3 km/h 91% 1.3 mm 19.00 W/m2
09:03 18.5 °C 17.0 °C 1007.3 hPa WSW 22.7 km/h 32.2 km/h 91% 1.3 mm 25.00 W/m2
09:08 18.4 °C 16.9 °C 1007.3 hPa SSW 4.7 km/h 20.9 km/h 91% 1.5 mm 40.00 W/m2
09:13 18.3 °C 17.0 °C 1007.3 hPa SSW 1.4 km/h 16.1 km/h 92% 1.5 mm 35.00 W/m2
09:18 18.4 °C 16.9 °C 1007.3 hPa SW 6.4 km/h 19.3 km/h 91% 1.0 mm 49.00 W/m2
09:23 18.4 °C 16.9 °C 1007.3 hPa South 17.7 km/h 25.7 km/h 91% 0.5 mm 40.00 W/m2
09:28 18.6 °C 16.9 °C 1007.3 hPa South 13.0 km/h 12.9 km/h 90% 0.5 mm 35.00 W/m2
09:33 18.5 °C 16.8 °C 1007.3 hPa SSE 7.9 km/h 16.1 km/h 90% 0.5 mm 35.00 W/m2
09:38 18.5 °C 16.8 °C 1007.3 hPa SSE 9.7 km/h 14.5 km/h 90% 0.5 mm 32.00 W/m2
09:43 18.4 °C 16.7 °C 1007.3 hPa SSE 7.9 km/h 16.1 km/h 90% 0.5 mm 37.00 W/m2
09:48 18.6 °C 16.9 °C 1007.3 hPa SSE 9.7 km/h 29.0 km/h 90% 0.5 mm 32.00 W/m2
09:53 18.6 °C 16.8 °C 1007.3 hPa SSE 14.3 km/h 22.5 km/h 89% 0.3 mm 16.00 W/m2
09:58 18.4 °C 16.7 °C 1007.3 hPa South 11.1 km/h 19.3 km/h 90% 0.5 mm 39.00 W/m2
10:03 18.3 °C 16.6 °C 1007.3 hPa South 11.1 km/h 22.5 km/h 90% 0.5 mm 32.00 W/m2
10:08 18.3 °C 16.8 °C 1007.3 hPa SE 9.7 km/h 19.3 km/h 91% 0.3 mm 26.00 W/m2
10:13 18.4 °C 16.7 °C 1007.0 hPa South 9.7 km/h 14.5 km/h 90% 0.3 mm 33.00 W/m2
10:18 18.4 °C 16.7 °C 1007.0 hPa SSE 9.7 km/h 20.9 km/h 90% 0.3 mm 74.00 W/m2
10:23 18.5 °C 16.8 °C 1007.0 hPa South 11.1 km/h 19.3 km/h 90% 0.3 mm 125.00 W/m2
10:28 18.6 °C 16.9 °C 1007.0 hPa South 11.1 km/h 22.5 km/h 90% 0.3 mm 125.00 W/m2
10:33 18.8 °C 16.9 °C 1007.0 hPa South 9.7 km/h 20.9 km/h 89% 0.3 mm 109.00 W/m2
10:38 18.9 °C 17.0 °C 1007.0 hPa South 22.7 km/h 27.4 km/h 89% 0.3 mm 74.00 W/m2
10:43 19.2 °C 17.3 °C 1007.0 hPa South 3.2 km/h 20.9 km/h 89% 0.3 mm 54.00 W/m2
10:48 19.3 °C 17.3 °C 1006.7 hPa South 17.7 km/h 20.9 km/h 88% 0.3 mm 84.00 W/m2
10:53 19.7 °C 17.5 °C 1006.7 hPa SSW 4.7 km/h 22.5 km/h 87% 0.3 mm 174.00 W/m2
10:58 19.9 °C 17.5 °C 1006.7 hPa South 7.9 km/h 14.5 km/h 86% 0.0 mm 137.00 W/m2
11:03 19.9 °C 17.5 °C 1006.7 hPa South 7.9 km/h 11.3 km/h 86% 0.0 mm 121.00 W/m2
11:08 19.9 °C 17.5 °C 1006.7 hPa South 19.5 km/h 20.9 km/h 86% 0.0 mm 69.00 W/m2
11:13 19.8 °C 17.4 °C 1006.7 hPa SW 16.3 km/h 22.5 km/h 86% 0.0 mm 97.00 W/m2
11:18 19.7 °C 17.3 °C 1006.7 hPa SSE 11.1 km/h 24.1 km/h 86% 0.0 mm 83.00 W/m2
11:23 19.5 °C 17.1 °C 1006.7 hPa SE 13.0 km/h 22.5 km/h 86% 0.0 mm 74.00 W/m2
11:28 19.4 °C 16.8 °C 1006.7 hPa SSW 16.3 km/h 17.7 km/h 85% 0.0 mm 91.00 W/m2
11:33 19.3 °C 16.9 °C 1006.7 hPa South 11.1 km/h 12.9 km/h 86% 0.0 mm 125.00 W/m2
11:38 19.3 °C 16.7 °C 1006.3 hPa SW 14.3 km/h 27.4 km/h 85% 0.0 mm 192.00 W/m2
11:43 19.4 °C 16.8 °C 1006.3 hPa South 13.0 km/h 22.5 km/h 85% 0.0 mm 167.00 W/m2
11:48 19.4 °C 16.8 °C 1006.3 hPa SSE 9.7 km/h 17.7 km/h 85% 0.0 mm 121.00 W/m2
11:53 19.4 °C 16.6 °C 1006.3 hPa SSE 14.3 km/h 24.1 km/h 84% 0.0 mm 91.00 W/m2
11:58 19.4 °C 16.6 °C 1006.3 hPa SSE 11.1 km/h 24.1 km/h 84% 0.0 mm 113.00 W/m2
12:03 19.5 °C 16.7 °C 1006.3 hPa SSW 3.2 km/h 14.5 km/h 84% 0.0 mm 141.00 W/m2
12:08 19.5 °C 16.7 °C 1006.3 hPa SSE 16.3 km/h 19.3 km/h 84% 0.0 mm 69.00 W/m2
12:13 19.5 °C 16.5 °C 1006.3 hPa South 20.9 km/h 20.9 km/h 83% 0.0 mm 104.00 W/m2
12:18 19.5 °C 16.7 °C 1006.3 hPa SSW 11.1 km/h 14.5 km/h 84% 0.0 mm 127.00 W/m2
12:23 19.5 °C 16.5 °C 1006.3 hPa SSW 9.7 km/h 22.5 km/h 83% 0.0 mm 111.00 W/m2
12:28 19.6 °C 16.6 °C 1006.3 hPa SSE 16.3 km/h 22.5 km/h 83% 0.0 mm 234.00 W/m2
12:33 19.7 °C 16.7 °C 1006.0 hPa South 13.0 km/h 29.0 km/h 83% 0.0 mm 239.00 W/m2
12:38 19.8 °C 16.8 °C 1006.0 hPa South 19.5 km/h 30.6 km/h 83% 0.0 mm 139.00 W/m2
12:43 19.9 °C 16.9 °C 1006.0 hPa South 11.1 km/h 17.7 km/h 83% 0.0 mm 109.00 W/m2
12:48 19.9 °C 16.7 °C 1006.0 hPa SSW 7.9 km/h 32.2 km/h 82% 0.0 mm 95.00 W/m2
12:53 20.0 °C 16.8 °C 1006.0 hPa SSE 7.9 km/h 30.6 km/h 82% 0.0 mm 102.00 W/m2
12:58 20.1 °C 16.9 °C 1006.0 hPa South 13.0 km/h 22.5 km/h 82% 0.0 mm 169.00 W/m2
13:03 20.1 °C 16.9 °C 1005.6 hPa South 20.9 km/h 20.9 km/h 82% 0.0 mm 162.00 W/m2
13:08 20.2 °C 17.0 °C 1005.6 hPa SSE 16.3 km/h 32.2 km/h 82% 0.0 mm 218.00 W/m2
13:13 20.4 °C 17.0 °C 1005.6 hPa SSW 13.0 km/h 22.5 km/h 81% 0.0 mm 193.00 W/m2
13:18 20.4 °C 17.0 °C 1005.6 hPa South 14.3 km/h 20.9 km/h 81% 0.0 mm 155.00 W/m2
13:23 20.6 °C 17.2 °C 1005.3 hPa SSE 9.7 km/h 16.1 km/h 81% 0.3 mm 188.00 W/m2
13:28 20.7 °C 17.3 °C 1005.3 hPa SSE 16.3 km/h 25.7 km/h 81% 0.3 mm 176.00 W/m2
13:33 20.5 °C 17.1 °C 1005.0 hPa South 20.9 km/h 29.0 km/h 81% 0.3 mm 206.00 W/m2
13:38 20.6 °C 17.0 °C 1005.0 hPa South 14.3 km/h 20.9 km/h 80% 0.3 mm 436.00 W/m2
13:43 20.8 °C 17.2 °C 1005.0 hPa SSE 9.7 km/h 29.0 km/h 80% 0.3 mm 420.00 W/m2
13:48 20.9 °C 17.1 °C 1004.6 hPa South 25.9 km/h 37.0 km/h 79% 0.3 mm 352.00 W/m2
13:53 20.9 °C 17.1 °C 1004.6 hPa SSE 13.0 km/h 30.6 km/h 79% 0.3 mm 383.00 W/m2
13:58 21.1 °C 17.1 °C 1004.6 hPa SW 17.7 km/h 29.0 km/h 78% 0.3 mm 429.00 W/m2
14:03 21.1 °C 17.1 °C 1004.6 hPa SSW 24.1 km/h 38.6 km/h 78% 0.3 mm 390.00 W/m2
14:08 21.2 °C 17.2 °C 1004.6 hPa SSW 16.3 km/h 33.8 km/h 78% 0.3 mm 357.00 W/m2
14:13 21.4 °C 17.6 °C 1004.6 hPa South 4.7 km/h 9.7 km/h 79% 0.3 mm 265.00 W/m2
14:18 21.4 °C 17.4 °C 1004.6 hPa SSW 19.5 km/h 22.5 km/h 78% 0.3 mm 288.00 W/m2
14:23 21.4 °C 17.2 °C 1004.6 hPa SSW 13.0 km/h 38.6 km/h 77% 0.0 mm 283.00 W/m2
14:28 21.4 °C 17.2 °C 1004.6 hPa SSW 17.7 km/h 25.7 km/h 77% 0.0 mm 246.00 W/m2
14:33 21.6 °C 17.4 °C 1004.6 hPa South 14.3 km/h 29.0 km/h 77% 0.0 mm 427.00 W/m2
14:38 21.8 °C 17.4 °C 1004.6 hPa South 19.5 km/h 25.7 km/h 76% 0.0 mm 348.00 W/m2
14:43 21.8 °C 17.2 °C 1004.3 hPa South 9.7 km/h 29.0 km/h 75% 0.0 mm 392.00 W/m2
14:48 21.8 °C 17.2 °C 1004.3 hPa SSW 17.7 km/h 40.2 km/h 75% 0.0 mm 227.00 W/m2
14:53 21.8 °C 17.2 °C 1004.3 hPa SSW 9.7 km/h 29.0 km/h 75% 0.0 mm 230.00 W/m2
14:58 21.8 °C 17.2 °C 1004.6 hPa SSW 7.9 km/h 33.8 km/h 75% 0.0 mm 415.00 W/m2
15:03 21.9 °C 17.3 °C 1004.6 hPa SSW 13.0 km/h 37.0 km/h 75% 0.0 mm 492.00 W/m2
15:08 21.9 °C 17.3 °C 1004.3 hPa SSW 4.7 km/h 32.2 km/h 75% 0.0 mm 241.00 W/m2
15:13 21.7 °C 17.1 °C 1004.3 hPa SSW 17.7 km/h 25.7 km/h 75% 0.0 mm 160.00 W/m2
15:18 21.6 °C 17.2 °C 1004.3 hPa SSE 35.2 km/h 40.2 km/h 76% 0.0 mm 156.00 W/m2
15:23 21.5 °C 17.1 °C 1004.3 hPa SSW 27.4 km/h 38.6 km/h 76% 0.0 mm 69.00 W/m2
15:28 21.4 °C 17.2 °C 1004.3 hPa SSW 7.9 km/h 17.7 km/h 77% 0.0 mm 47.00 W/m2
15:33 21.3 °C 17.1 °C 1004.3 hPa South 16.3 km/h 20.9 km/h 77% 0.0 mm 49.00 W/m2
15:38 21.2 °C 17.0 °C 1003.9 hPa South 25.9 km/h 27.4 km/h 77% 0.0 mm 51.00 W/m2
15:43 21.2 °C 17.0 °C 1003.9 hPa South 14.3 km/h 32.2 km/h 77% 0.0 mm 42.00 W/m2
15:48 21.2 °C 17.0 °C 1003.9 hPa South 7.9 km/h 29.0 km/h 77% 0.0 mm 76.00 W/m2
15:53 21.2 °C 17.2 °C 1003.9 hPa SSW 9.7 km/h 20.9 km/h 78% 0.0 mm 54.00 W/m2
15:58 21.2 °C 17.2 °C 1003.9 hPa WSW 28.8 km/h 43.4 km/h 78% 0.0 mm 49.00 W/m2
16:03 21.1 °C 17.1 °C 1003.9 hPa South 14.3 km/h 35.4 km/h 78% 0.0 mm 35.00 W/m2
16:08 21.1 °C 17.1 °C 1003.9 hPa SW 30.6 km/h 32.2 km/h 78% 0.0 mm 44.00 W/m2
16:13 21.0 °C 17.0 °C 1003.9 hPa South 11.1 km/h 14.5 km/h 78% 0.0 mm 33.00 W/m2
16:18 20.9 °C 16.9 °C 1003.9 hPa SSW 11.1 km/h 40.2 km/h 78% 0.0 mm 23.00 W/m2
16:23 20.9 °C 17.1 °C 1004.3 hPa SSE 9.7 km/h 29.0 km/h 79% 0.0 mm 18.00 W/m2
16:28 20.8 °C 17.0 °C 1004.3 hPa SSW 19.5 km/h 33.8 km/h 79% 0.0 mm 26.00 W/m2
16:33 20.7 °C 16.9 °C 1003.9 hPa South 6.4 km/h 27.4 km/h 79% 0.0 mm 30.00 W/m2
16:38 20.6 °C 17.0 °C 1003.9 hPa SSW 30.6 km/h 33.8 km/h 80% 0.0 mm 42.00 W/m2
16:43 20.6 °C 17.0 °C 1003.9 hPa SSW 19.5 km/h 40.2 km/h 80% 0.0 mm 40.00 W/m2
16:48 20.3 °C 16.9 °C 1003.9 hPa South 16.3 km/h 29.0 km/h 81% 0.0 mm 28.00 W/m2
16:53 19.9 °C 16.7 °C 1003.9 hPa WSW 17.7 km/h 30.6 km/h 82% 0.0 mm 44.00 W/m2
16:58 19.7 °C 16.7 °C 1003.9 hPa SSW 27.4 km/h 30.6 km/h 83% 0.0 mm 54.00 W/m2
17:03 19.6 °C 16.8 °C 1003.9 hPa SW 14.3 km/h 35.4 km/h 84% 0.0 mm 46.00 W/m2
17:08 19.5 °C 16.7 °C 1003.9 hPa WSW 27.4 km/h 40.2 km/h 84% 0.0 mm 19.00 W/m2
17:13 19.5 °C 16.7 °C 1003.9 hPa South 13.0 km/h 29.0 km/h 84% 0.0 mm 18.00 W/m2
17:18 19.6 °C 16.8 °C 1003.9 hPa SSW 7.9 km/h 27.4 km/h 84% 0.0 mm 18.00 W/m2
17:23 19.7 °C 16.7 °C 1003.9 hPa South 14.3 km/h 37.0 km/h 83% 0.0 mm 32.00 W/m2
17:28 19.8 °C 16.8 °C 1003.9 hPa South 14.3 km/h 30.6 km/h 83% 0.0 mm 16.00 W/m2
17:33 19.8 °C 16.8 °C 1003.9 hPa SSW 16.3 km/h 30.6 km/h 83% 0.0 mm 16.00 W/m2
17:38 19.8 °C 16.8 °C 1003.9 hPa SSW 25.9 km/h 35.4 km/h 83% 0.0 mm 12.00 W/m2
17:43 19.8 °C 16.8 °C 1004.3 hPa West 22.7 km/h 33.8 km/h 83% 0.0 mm 9.00 W/m2
17:48 19.8 °C 16.8 °C 1004.3 hPa SSW 19.5 km/h 32.2 km/h 83% 0.0 mm 9.00 W/m2
17:53 19.7 °C 16.7 °C 1004.3 hPa SSW 9.7 km/h 22.5 km/h 83% 0.0 mm 5.00 W/m2
17:58 19.6 °C 16.6 °C 1004.3 hPa South 7.9 km/h 29.0 km/h 83% 0.0 mm 0.00 W/m2
18:03 19.5 °C 16.5 °C 1004.3 hPa SW 19.5 km/h 24.1 km/h 83% 0.0 mm 0.00 W/m2
18:08 19.5 °C 16.5 °C 1004.3 hPa SSW 20.9 km/h 30.6 km/h 83% 0.0 mm 0.00 W/m2
18:14 19.5 °C 16.5 °C 1004.3 hPa South 7.9 km/h 30.6 km/h 83% 0.0 mm 0.00 W/m2
18:19 19.4 °C 16.6 °C 1004.3 hPa SSW 9.7 km/h 22.5 km/h 84% 0.0 mm 0.00 W/m2
18:24 19.3 °C 16.5 °C 1004.6 hPa South 16.3 km/h 32.2 km/h 84% 0.0 mm 0.00 W/m2
18:29 19.3 °C 16.5 °C 1004.6 hPa South 20.9 km/h 27.4 km/h 84% 0.0 mm 0.00 W/m2
18:34 19.2 °C 16.4 °C 1004.6 hPa South 14.3 km/h 32.2 km/h 84% 0.0 mm 0.00 W/m2
18:39 19.2 °C 16.4 °C 1004.6 hPa SW 30.6 km/h 35.4 km/h 84% 0.0 mm 0.00 W/m2
18:44 19.2 °C 16.4 °C 1005.0 hPa SSW 11.1 km/h 35.4 km/h 84% 0.0 mm 0.00 W/m2
18:49 19.1 °C 16.3 °C 1005.0 hPa SW 16.3 km/h 24.1 km/h 84% 0.0 mm 0.00 W/m2
18:54 19.1 °C 16.3 °C 1005.0 hPa South 14.3 km/h 35.4 km/h 84% 0.0 mm 0.00 W/m2
18:59 19.0 °C 16.0 °C 1005.0 hPa SSW 6.4 km/h 19.3 km/h 83% 0.0 mm 0.00 W/m2
19:04 19.0 °C 16.0 °C 1005.0 hPa SSW 32.0 km/h 33.8 km/h 83% 0.0 mm 0.00 W/m2
19:09 18.9 °C 16.1 °C 1005.0 hPa SW 14.3 km/h 25.7 km/h 84% 0.0 mm 0.00 W/m2
19:14 18.8 °C 16.0 °C 1005.0 hPa South 6.4 km/h 17.7 km/h 84% 0.0 mm 0.00 W/m2
19:19 18.7 °C 15.9 °C 1005.0 hPa WSW 25.9 km/h 25.7 km/h 84% 0.0 mm 0.00 W/m2
19:24 18.6 °C 15.8 °C 1005.3 hPa SW 7.9 km/h 16.1 km/h 84% 0.0 mm 0.00 W/m2
19:29 18.5 °C 15.7 °C 1005.3 hPa SW 11.1 km/h 20.9 km/h 84% 0.0 mm 0.00 W/m2
19:34 18.4 °C 15.6 °C 1005.3 hPa SW 7.9 km/h 27.4 km/h 84% 0.0 mm 0.00 W/m2
19:39 18.3 °C 15.7 °C 1005.3 hPa SW 6.4 km/h 17.7 km/h 85% 0.0 mm 0.00 W/m2
19:44 18.3 °C 15.7 °C 1005.0 hPa SSW 11.1 km/h 24.1 km/h 85% 0.0 mm 0.00 W/m2
19:49 18.3 °C 15.5 °C 1005.0 hPa SSW 14.3 km/h 25.7 km/h 84% 0.0 mm 0.00 W/m2
19:54 18.2 °C 15.6 °C 1005.0 hPa South 16.3 km/h 19.3 km/h 85% 0.0 mm 0.00 W/m2
19:59 18.2 °C 15.6 °C 1005.3 hPa SW 4.7 km/h 17.7 km/h 85% 0.0 mm 0.00 W/m2
20:04 18.1 °C 15.5 °C 1005.3 hPa SSE 20.9 km/h 24.1 km/h 85% 0.0 mm 0.00 W/m2
20:09 18.0 °C 15.4 °C 1005.6 hPa SW 7.9 km/h 25.7 km/h 85% 0.0 mm 0.00 W/m2
20:14 18.0 °C 15.4 °C 1005.6 hPa SW 11.1 km/h 14.5 km/h 85% 0.0 mm 0.00 W/m2
20:19 17.9 °C 15.3 °C 1005.6 hPa South 11.1 km/h 16.1 km/h 85% 0.0 mm 0.00 W/m2
20:24 17.9 °C 15.3 °C 1005.6 hPa SW 7.9 km/h 19.3 km/h 85% 0.0 mm 0.00 W/m2
20:29 17.9 °C 15.3 °C 1005.6 hPa SSE 7.9 km/h 14.5 km/h 85% 0.0 mm 0.00 W/m2
20:34 17.9 °C 15.3 °C 1005.6 hPa SSW 11.1 km/h 17.7 km/h 85% 0.0 mm 0.00 W/m2
20:39 17.9 °C 15.3 °C 1005.6 hPa SSE 13.0 km/h 22.5 km/h 85% 0.0 mm 0.00 W/m2
20:44 17.8 °C 15.2 °C 1005.6 hPa SSW 4.7 km/h 20.9 km/h 85% 0.0 mm 0.00 W/m2
20:49 17.7 °C 15.1 °C 1005.6 hPa SSW 16.3 km/h 22.5 km/h 85% 0.0 mm 0.00 W/m2
20:54 17.7 °C 15.3 °C 1005.6 hPa SSW 4.7 km/h 11.3 km/h 86% 0.0 mm 0.00 W/m2
20:59 17.6 °C 15.2 °C 1005.6 hPa WSW 3.2 km/h 14.5 km/h 86% 0.0 mm 0.00 W/m2
21:04 17.5 °C 15.1 °C 1005.6 hPa WSW 4.7 km/h 14.5 km/h 86% 0.0 mm 0.00 W/m2
21:09 17.5 °C 15.1 °C 1005.6 hPa SW 13.0 km/h 12.9 km/h 86% 0.0 mm 0.00 W/m2
21:14 17.5 °C 15.1 °C 1005.6 hPa SW 3.2 km/h 14.5 km/h 86% 0.0 mm 0.00 W/m2
21:19 17.4 °C 15.0 °C 1005.3 hPa SSW 1.4 km/h 11.3 km/h 86% 0.0 mm 0.00 W/m2
21:24 17.4 °C 15.0 °C 1005.6 hPa SSW 17.7 km/h 22.5 km/h 86% 0.0 mm 0.00 W/m2
21:29 17.4 °C 15.0 °C 1005.6 hPa SW 7.9 km/h 12.9 km/h 86% 0.0 mm 0.00 W/m2
21:34 17.3 °C 15.1 °C 1005.6 hPa SW 13.0 km/h 14.5 km/h 87% 0.0 mm 0.00 W/m2
21:39 17.3 °C 15.1 °C 1005.6 hPa WSW 13.0 km/h 19.3 km/h 87% 0.0 mm 0.00 W/m2
21:44 17.3 °C 15.1 °C 1005.6 hPa SW 13.0 km/h 14.5 km/h 87% 0.0 mm 0.00 W/m2
21:49 17.3 °C 14.9 °C 1005.3 hPa South 11.1 km/h 22.5 km/h 86% 0.0 mm 0.00 W/m2
21:54 17.2 °C 15.0 °C 1005.3 hPa SW 11.1 km/h 12.9 km/h 87% 0.0 mm 0.00 W/m2
21:59 17.2 °C 14.8 °C 1005.6 hPa SW 9.7 km/h 22.5 km/h 86% 0.0 mm 0.00 W/m2
22:04 17.2 °C 14.8 °C 1005.6 hPa SSW 14.3 km/h 19.3 km/h 86% 0.0 mm 0.00 W/m2
22:09 17.2 °C 14.8 °C 1005.6 hPa SW 4.7 km/h 22.5 km/h 86% 0.0 mm 0.00 W/m2
22:14 17.1 °C 14.7 °C 1005.6 hPa SW 14.3 km/h 22.5 km/h 86% 0.0 mm 0.00 W/m2
22:19 17.0 °C 14.6 °C 1005.6 hPa SW 6.4 km/h 22.5 km/h 86% 0.0 mm 0.00 W/m2
22:24 17.0 °C 14.6 °C 1005.6 hPa SW 11.1 km/h 17.7 km/h 86% 0.0 mm 0.00 W/m2
22:29 17.0 °C 14.6 °C 1005.6 hPa WSW 7.9 km/h 20.9 km/h 86% 0.0 mm 0.00 W/m2
22:34 16.9 °C 14.5 °C 1006.0 hPa SW 16.3 km/h 19.3 km/h 86% 0.0 mm 0.00 W/m2
22:39 16.7 °C 14.5 °C 1006.0 hPa West 16.3 km/h 22.5 km/h 87% 0.0 mm 0.00 W/m2
22:44 16.3 °C 14.3 °C 1006.0 hPa SW 11.1 km/h 19.3 km/h 88% 0.0 mm 0.00 W/m2
22:49 16.0 °C 14.2 °C 1006.0 hPa WSW 7.9 km/h 22.5 km/h 89% 0.3 mm 0.00 W/m2
22:54 15.7 °C 14.1 °C 1006.0 hPa WSW 4.7 km/h 14.5 km/h 90% 0.3 mm 0.00 W/m2
22:59 15.7 °C 14.1 °C 1006.0 hPa West 1.4 km/h 8.0 km/h 90% 0.3 mm 0.00 W/m2
23:04 15.6 °C 14.1 °C 1006.3 hPa SW 3.2 km/h 17.7 km/h 91% 0.3 mm 0.00 W/m2
23:09 15.5 °C 14.0 °C 1006.0 hPa SW 6.4 km/h 9.7 km/h 91% 0.3 mm 0.00 W/m2
23:14 15.4 °C 13.8 °C 1005.6 hPa SSW 6.4 km/h 17.7 km/h 90% 0.3 mm 0.00 W/m2
23:19 15.3 °C 13.7 °C 1005.3 hPa SSW 6.4 km/h 8.0 km/h 90% 0.3 mm 0.00 W/m2
23:24 15.3 °C 13.5 °C 1005.6 hPa SSW 7.9 km/h 11.3 km/h 89% 0.3 mm 0.00 W/m2
23:29 15.1 °C 13.3 °C 1005.6 hPa SSW 4.7 km/h 11.3 km/h 89% 0.3 mm 0.00 W/m2
23:34 15.0 °C 13.0 °C 1005.6 hPa SSW 6.4 km/h 11.3 km/h 88% 0.3 mm 0.00 W/m2
23:39 14.9 °C 12.9 °C 1005.3 hPa SSW 4.7 km/h 9.7 km/h 88% 0.3 mm 0.00 W/m2
23:44 14.8 °C 12.8 °C 1005.3 hPa SSW 1.4 km/h 16.1 km/h 88% 0.3 mm 0.00 W/m2
23:49 14.7 °C 12.7 °C 1005.6 hPa South 3.2 km/h 16.1 km/h 88% 0.0 mm 0.00 W/m2
23:54 14.7 °C 12.7 °C 1005.3 hPa SSW 4.7 km/h 12.9 km/h 88% 0.0 mm 0.00 W/m2
23:59 14.7 °C 12.7 °C 1005.6 hPa SW 11.1 km/h 14.5 km/h 88% 0.0 mm 0.00 W/m2